sensor_id;sensor_type;location;lat;lon;timestamp;P1;durP1;ratioP1;P2;durP2;ratioP2
9675;SDS011;4876;42.656;23.292;2022-08-21T00:01:22;8.87;;;4.30;;
9675;SDS011;4876;42.656;23.292;2022-08-21T00:03:52;7.77;;;5.40;;
9675;SDS011;4876;42.656;23.292;2022-08-21T00:06:18;12.17;;;5.83;;
9675;SDS011;4876;42.656;23.292;2022-08-21T00:08:47;9.07;;;4.60;;
9675;SDS011;4876;42.656;23.292;2022-08-21T00:11:14;11.20;;;5.97;;
9675;SDS011;4876;42.656;23.292;2022-08-21T00:13:40;8.37;;;5.83;;
9675;SDS011;4876;42.656;23.292;2022-08-21T00:16:07;8.20;;;5.93;;
9675;SDS011;4876;42.656;23.292;2022-08-21T00:18:34;8.13;;;5.70;;
9675;SDS011;4876;42.656;23.292;2022-08-21T00:21:02;7.77;;;4.90;;
9675;SDS011;4876;42.656;23.292;2022-08-21T00:23:29;9.00;;;5.47;;
9675;SDS011;4876;42.656;23.292;2022-08-21T00:25:58;11.90;;;5.60;;
9675;SDS011;4876;42.656;23.292;2022-08-21T00:28:25;6.93;;;5.47;;
9675;SDS011;4876;42.656;23.292;2022-08-21T00:30:52;7.03;;;4.63;;
9675;SDS011;4876;42.656;23.292;2022-08-21T00:33:18;5.93;;;4.40;;
9675;SDS011;4876;42.656;23.292;2022-08-21T00:35:45;4.87;;;4.30;;
9675;SDS011;4876;42.656;23.292;2022-08-21T00:38:12;13.50;;;4.73;;
9675;SDS011;4876;42.656;23.292;2022-08-21T00:40:41;7.57;;;5.20;;
9675;SDS011;4876;42.656;23.292;2022-08-21T00:43:12;6.50;;;4.47;;
9675;SDS011;4876;42.656;23.292;2022-08-21T00:45:42;4.83;;;4.33;;
9675;SDS011;4876;42.656;23.292;2022-08-21T00:48:10;6.53;;;4.30;;
9675;SDS011;4876;42.656;23.292;2022-08-21T00:50:38;9.47;;;4.77;;
9675;SDS011;4876;42.656;23.292;2022-08-21T00:53:08;6.50;;;4.30;;
9675;SDS011;4876;42.656;23.292;2022-08-21T00:55:38;6.83;;;5.00;;
9675;SDS011;4876;42.656;23.292;2022-08-21T00:58:08;6.83;;;4.33;;
9675;SDS011;4876;42.656;23.292;2022-08-21T01:00:40;5.13;;;3.80;;
9675;SDS011;4876;42.656;23.292;2022-08-21T01:03:12;8.77;;;3.60;;
9675;SDS011;4876;42.656;23.292;2022-08-21T01:05:40;6.80;;;4.20;;
9675;SDS011;4876;42.656;23.292;2022-08-21T01:08:08;7.10;;;4.10;;
9675;SDS011;4876;42.656;23.292;2022-08-21T01:10:36;5.80;;;3.80;;
9675;SDS011;4876;42.656;23.292;2022-08-21T01:13:04;7.13;;;3.53;;
9675;SDS011;4876;42.656;23.292;2022-08-21T01:15:35;12.30;;;3.47;;
9675;SDS011;4876;42.656;23.292;2022-08-21T01:18:06;3.37;;;2.97;;
9675;SDS011;4876;42.656;23.292;2022-08-21T01:20:36;5.00;;;2.93;;
9675;SDS011;4876;42.656;23.292;2022-08-21T01:23:05;3.33;;;3.03;;
9675;SDS011;4876;42.656;23.292;2022-08-21T01:25:33;5.77;;;3.27;;
9675;SDS011;4876;42.656;23.292;2022-08-21T01:28:02;6.77;;;3.50;;
9675;SDS011;4876;42.656;23.292;2022-08-21T01:30:32;3.87;;;3.20;;
9675;SDS011;4876;42.656;23.292;2022-08-21T01:33:02;4.70;;;3.27;;
9675;SDS011;4876;42.656;23.292;2022-08-21T01:35:29;4.07;;;3.20;;
9675;SDS011;4876;42.656;23.292;2022-08-21T01:37:56;6.07;;;3.50;;
9675;SDS011;4876;42.656;23.292;2022-08-21T01:40:24;8.23;;;3.50;;
9675;SDS011;4876;42.656;23.292;2022-08-21T01:42:51;3.50;;;2.87;;
9675;SDS011;4876;42.656;23.292;2022-08-21T01:45:18;6.57;;;3.50;;
9675;SDS011;4876;42.656;23.292;2022-08-21T01:47:46;4.63;;;3.00;;
9675;SDS011;4876;42.656;23.292;2022-08-21T01:50:13;4.37;;;2.77;;
9675;SDS011;4876;42.656;23.292;2022-08-21T01:52:42;3.43;;;2.73;;
9675;SDS011;4876;42.656;23.292;2022-08-21T01:55:09;10.07;;;3.07;;
9675;SDS011;4876;42.656;23.292;2022-08-21T01:57:39;4.63;;;2.77;;
9675;SDS011;4876;42.656;23.292;2022-08-21T02:00:08;4.40;;;2.73;;
9675;SDS011;4876;42.656;23.292;2022-08-21T02:02:37;3.60;;;2.73;;
9675;SDS011;4876;42.656;23.292;2022-08-21T02:05:05;5.80;;;2.60;;
9675;SDS011;4876;42.656;23.292;2022-08-21T02:07:35;5.73;;;3.03;;
9675;SDS011;4876;42.656;23.292;2022-08-21T02:10:04;5.80;;;3.30;;
9675;SDS011;4876;42.656;23.292;2022-08-21T02:12:34;2.70;;;2.50;;
9675;SDS011;4876;42.656;23.292;2022-08-21T02:15:02;4.57;;;2.93;;
9675;SDS011;4876;42.656;23.292;2022-08-21T02:17:36;8.93;;;3.13;;
9675;SDS011;4876;42.656;23.292;2022-08-21T02:20:04;4.57;;;2.97;;
9675;SDS011;4876;42.656;23.292;2022-08-21T02:22:32;4.10;;;2.80;;
9675;SDS011;4876;42.656;23.292;2022-08-21T02:24:58;4.30;;;2.70;;
9675;SDS011;4876;42.656;23.292;2022-08-21T02:27:25;3.67;;;2.60;;
9675;SDS011;4876;42.656;23.292;2022-08-21T02:29:53;4.43;;;3.03;;
9675;SDS011;4876;42.656;23.292;2022-08-21T02:32:22;4.70;;;2.87;;
9675;SDS011;4876;42.656;23.292;2022-08-21T02:34:49;3.33;;;2.87;;
9675;SDS011;4876;42.656;23.292;2022-08-21T02:37:16;5.00;;;2.90;;
9675;SDS011;4876;42.656;23.292;2022-08-21T02:39:43;6.30;;;3.23;;
9675;SDS011;4876;42.656;23.292;2022-08-21T02:42:09;5.07;;;3.53;;
9675;SDS011;4876;42.656;23.292;2022-08-21T02:44:36;10.00;;;3.70;;
9675;SDS011;4876;42.656;23.292;2022-08-21T02:47:03;7.27;;;3.23;;
9675;SDS011;4876;42.656;23.292;2022-08-21T02:49:32;4.70;;;3.03;;
9675;SDS011;4876;42.656;23.292;2022-08-21T02:51:58;3.47;;;3.17;;
9675;SDS011;4876;42.656;23.292;2022-08-21T02:54:25;4.17;;;3.03;;
9675;SDS011;4876;42.656;23.292;2022-08-21T02:56:52;4.57;;;3.13;;
9675;SDS011;4876;42.656;23.292;2022-08-21T02:59:19;4.40;;;3.40;;
9675;SDS011;4876;42.656;23.292;2022-08-21T03:01:46;6.30;;;3.23;;
9675;SDS011;4876;42.656;23.292;2022-08-21T03:04:12;5.30;;;3.20;;
9675;SDS011;4876;42.656;23.292;2022-08-21T03:06:40;5.27;;;2.93;;
9675;SDS011;4876;42.656;23.292;2022-08-21T03:09:07;4.70;;;3.03;;
9675;SDS011;4876;42.656;23.292;2022-08-21T03:11:34;3.50;;;3.07;;
9675;SDS011;4876;42.656;23.292;2022-08-21T03:14:02;7.23;;;3.70;;
9675;SDS011;4876;42.656;23.292;2022-08-21T03:16:30;5.23;;;2.87;;
9675;SDS011;4876;42.656;23.292;2022-08-21T03:18:57;6.30;;;2.70;;
9675;SDS011;4876;42.656;23.292;2022-08-21T03:21:24;5.67;;;3.20;;
9675;SDS011;4876;42.656;23.292;2022-08-21T03:23:52;4.33;;;2.97;;
9675;SDS011;4876;42.656;23.292;2022-08-21T03:26:19;6.40;;;3.23;;
9675;SDS011;4876;42.656;23.292;2022-08-21T03:28:46;5.43;;;2.70;;
9675;SDS011;4876;42.656;23.292;2022-08-21T03:31:13;5.33;;;3.00;;
9675;SDS011;4876;42.656;23.292;2022-08-21T03:33:40;6.00;;;2.83;;
9675;SDS011;4876;42.656;23.292;2022-08-21T03:36:10;7.40;;;2.90;;
9675;SDS011;4876;42.656;23.292;2022-08-21T03:38:37;8.60;;;3.00;;
9675;SDS011;4876;42.656;23.292;2022-08-21T03:41:07;3.67;;;2.73;;
9675;SDS011;4876;42.656;23.292;2022-08-21T03:43:35;7.50;;;3.10;;
9675;SDS011;4876;42.656;23.292;2022-08-21T03:46:04;5.33;;;2.87;;
9675;SDS011;4876;42.656;23.292;2022-08-21T03:48:32;4.80;;;2.80;;
9675;SDS011;4876;42.656;23.292;2022-08-21T03:51:00;3.67;;;2.70;;
9675;SDS011;4876;42.656;23.292;2022-08-21T03:53:27;5.37;;;3.00;;
9675;SDS011;4876;42.656;23.292;2022-08-21T03:55:55;10.30;;;2.93;;
9675;SDS011;4876;42.656;23.292;2022-08-21T03:58:25;7.03;;;2.60;;
9675;SDS011;4876;42.656;23.292;2022-08-21T04:00:53;3.83;;;2.70;;
9675;SDS011;4876;42.656;23.292;2022-08-21T04:03:22;5.50;;;3.37;;
9675;SDS011;4876;42.656;23.292;2022-08-21T04:05:49;5.37;;;3.30;;
9675;SDS011;4876;42.656;23.292;2022-08-21T04:08:16;8.73;;;3.23;;
9675;SDS011;4876;42.656;23.292;2022-08-21T04:10:44;7.77;;;4.00;;
9675;SDS011;4876;42.656;23.292;2022-08-21T04:13:12;3.80;;;3.40;;
9675;SDS011;4876;42.656;23.292;2022-08-21T04:15:41;4.63;;;3.13;;
9675;SDS011;4876;42.656;23.292;2022-08-21T04:18:09;3.67;;;2.87;;
9675;SDS011;4876;42.656;23.292;2022-08-21T04:20:36;4.00;;;3.13;;
9675;SDS011;4876;42.656;23.292;2022-08-21T04:23:04;4.60;;;3.10;;
9675;SDS011;4876;42.656;23.292;2022-08-21T04:25:30;12.37;;;3.40;;
9675;SDS011;4876;42.656;23.292;2022-08-21T04:27:57;4.83;;;3.43;;
9675;SDS011;4876;42.656;23.292;2022-08-21T04:30:24;6.40;;;2.93;;
9675;SDS011;4876;42.656;23.292;2022-08-21T04:32:53;3.50;;;2.77;;
9675;SDS011;4876;42.656;23.292;2022-08-21T04:35:21;4.40;;;2.60;;
9675;SDS011;4876;42.656;23.292;2022-08-21T04:37:48;5.37;;;2.80;;
9675;SDS011;4876;42.656;23.292;2022-08-21T04:40:16;3.27;;;2.90;;
9675;SDS011;4876;42.656;23.292;2022-08-21T04:42:45;5.87;;;3.60;;
9675;SDS011;4876;42.656;23.292;2022-08-21T04:45:18;5.67;;;3.30;;
9675;SDS011;4876;42.656;23.292;2022-08-21T04:47:48;9.17;;;3.50;;
9675;SDS011;4876;42.656;23.292;2022-08-21T04:50:17;4.87;;;3.63;;
9675;SDS011;4876;42.656;23.292;2022-08-21T04:52:44;7.03;;;3.50;;
9675;SDS011;4876;42.656;23.292;2022-08-21T04:55:12;6.00;;;4.47;;
9675;SDS011;4876;42.656;23.292;2022-08-21T04:57:40;5.10;;;4.20;;
9675;SDS011;4876;42.656;23.292;2022-08-21T05:00:08;5.73;;;4.10;;
9675;SDS011;4876;42.656;23.292;2022-08-21T05:02:38;7.67;;;4.17;;
9675;SDS011;4876;42.656;23.292;2022-08-21T05:05:06;6.50;;;4.13;;
9675;SDS011;4876;42.656;23.292;2022-08-21T05:07:35;7.77;;;4.37;;
9675;SDS011;4876;42.656;23.292;2022-08-21T05:10:03;5.93;;;3.77;;
9675;SDS011;4876;42.656;23.292;2022-08-21T05:12:32;6.90;;;4.37;;
9675;SDS011;4876;42.656;23.292;2022-08-21T05:15:00;6.83;;;4.17;;
9675;SDS011;4876;42.656;23.292;2022-08-21T05:17:27;6.30;;;3.83;;
9675;SDS011;4876;42.656;23.292;2022-08-21T05:19:54;11.73;;;4.33;;
9675;SDS011;4876;42.656;23.292;2022-08-21T05:22:21;6.70;;;4.30;;
9675;SDS011;4876;42.656;23.292;2022-08-21T05:24:51;5.87;;;4.23;;
9675;SDS011;4876;42.656;23.292;2022-08-21T05:27:18;12.17;;;5.53;;
9675;SDS011;4876;42.656;23.292;2022-08-21T05:29:44;5.60;;;4.47;;
9675;SDS011;4876;42.656;23.292;2022-08-21T05:32:12;8.07;;;3.77;;
9675;SDS011;4876;42.656;23.292;2022-08-21T05:34:39;5.00;;;3.97;;
9675;SDS011;4876;42.656;23.292;2022-08-21T05:37:06;5.57;;;4.10;;
9675;SDS011;4876;42.656;23.292;2022-08-21T05:39:33;6.30;;;4.13;;
9675;SDS011;4876;42.656;23.292;2022-08-21T05:42:01;4.63;;;4.03;;
9675;SDS011;4876;42.656;23.292;2022-08-21T05:44:28;5.47;;;4.10;;
9675;SDS011;4876;42.656;23.292;2022-08-21T05:47:01;4.67;;;3.73;;
9675;SDS011;4876;42.656;23.292;2022-08-21T05:49:29;8.53;;;4.73;;
9675;SDS011;4876;42.656;23.292;2022-08-21T05:51:56;4.77;;;4.17;;
9675;SDS011;4876;42.656;23.292;2022-08-21T05:54:22;7.77;;;4.10;;
9675;SDS011;4876;42.656;23.292;2022-08-21T05:56:50;5.10;;;4.10;;
9675;SDS011;4876;42.656;23.292;2022-08-21T05:59:18;11.57;;;4.20;;
9675;SDS011;4876;42.656;23.292;2022-08-21T06:01:45;5.93;;;4.17;;
9675;SDS011;4876;42.656;23.292;2022-08-21T06:04:12;4.93;;;3.87;;
9675;SDS011;4876;42.656;23.292;2022-08-21T06:06:39;9.53;;;4.50;;
9675;SDS011;4876;42.656;23.292;2022-08-21T06:09:06;6.17;;;3.80;;
9675;SDS011;4876;42.656;23.292;2022-08-21T06:11:33;5.83;;;3.30;;
9675;SDS011;4876;42.656;23.292;2022-08-21T06:14:00;9.03;;;4.40;;
9675;SDS011;4876;42.656;23.292;2022-08-21T06:16:29;6.87;;;4.73;;
9675;SDS011;4876;42.656;23.292;2022-08-21T06:18:56;6.30;;;4.40;;
9675;SDS011;4876;42.656;23.292;2022-08-21T06:21:23;7.77;;;4.60;;
9675;SDS011;4876;42.656;23.292;2022-08-21T06:23:49;6.13;;;4.60;;
9675;SDS011;4876;42.656;23.292;2022-08-21T06:26:16;7.27;;;4.63;;
9675;SDS011;4876;42.656;23.292;2022-08-21T06:28:43;6.73;;;4.40;;
9675;SDS011;4876;42.656;23.292;2022-08-21T06:31:11;6.87;;;4.83;;
9675;SDS011;4876;42.656;23.292;2022-08-21T06:33:40;9.73;;;4.80;;
9675;SDS011;4876;42.656;23.292;2022-08-21T06:36:08;12.63;;;5.03;;
9675;SDS011;4876;42.656;23.292;2022-08-21T06:38:35;6.43;;;4.40;;
9675;SDS011;4876;42.656;23.292;2022-08-21T06:41:02;6.53;;;4.20;;
9675;SDS011;4876;42.656;23.292;2022-08-21T06:43:29;8.27;;;4.33;;
9675;SDS011;4876;42.656;23.292;2022-08-21T06:45:56;6.63;;;4.50;;
9675;SDS011;4876;42.656;23.292;2022-08-21T06:48:23;8.83;;;4.83;;
9675;SDS011;4876;42.656;23.292;2022-08-21T06:50:51;6.27;;;5.17;;
9675;SDS011;4876;42.656;23.292;2022-08-21T06:53:19;5.60;;;4.43;;
9675;SDS011;4876;42.656;23.292;2022-08-21T06:55:47;8.57;;;4.80;;
9675;SDS011;4876;42.656;23.292;2022-08-21T06:58:15;15.37;;;5.73;;
9675;SDS011;4876;42.656;23.292;2022-08-21T07:00:45;6.07;;;4.93;;
9675;SDS011;4876;42.656;23.292;2022-08-21T07:03:18;10.10;;;5.33;;
9675;SDS011;4876;42.656;23.292;2022-08-21T07:05:46;10.73;;;5.13;;
9675;SDS011;4876;42.656;23.292;2022-08-21T07:08:14;6.67;;;4.93;;
9675;SDS011;4876;42.656;23.292;2022-08-21T07:10:42;10.37;;;5.10;;
9675;SDS011;4876;42.656;23.292;2022-08-21T07:13:09;8.03;;;4.93;;
9675;SDS011;4876;42.656;23.292;2022-08-21T07:15:36;6.80;;;4.27;;
9675;SDS011;4876;42.656;23.292;2022-08-21T07:18:03;6.17;;;3.70;;
9675;SDS011;4876;42.656;23.292;2022-08-21T07:20:30;9.67;;;4.50;;
9675;SDS011;4876;42.656;23.292;2022-08-21T07:22:58;4.80;;;3.77;;
9675;SDS011;4876;42.656;23.292;2022-08-21T07:25:29;6.07;;;4.10;;
9675;SDS011;4876;42.656;23.292;2022-08-21T07:27:56;5.30;;;3.73;;
9675;SDS011;4876;42.656;23.292;2022-08-21T07:30:23;7.07;;;4.10;;
9675;SDS011;4876;42.656;23.292;2022-08-21T07:32:50;7.60;;;3.90;;
9675;SDS011;4876;42.656;23.292;2022-08-21T07:35:17;7.83;;;4.07;;
9675;SDS011;4876;42.656;23.292;2022-08-21T07:37:45;6.97;;;4.23;;
9675;SDS011;4876;42.656;23.292;2022-08-21T07:40:12;6.70;;;4.47;;
9675;SDS011;4876;42.656;23.292;2022-08-21T07:42:42;7.73;;;4.40;;
9675;SDS011;4876;42.656;23.292;2022-08-21T07:45:10;7.47;;;4.50;;
9675;SDS011;4876;42.656;23.292;2022-08-21T07:47:37;9.83;;;4.63;;
9675;SDS011;4876;42.656;23.292;2022-08-21T07:50:05;6.27;;;4.57;;
9675;SDS011;4876;42.656;23.292;2022-08-21T07:52:32;9.53;;;4.63;;
9675;SDS011;4876;42.656;23.292;2022-08-21T07:54:59;7.43;;;5.03;;
9675;SDS011;4876;42.656;23.292;2022-08-21T07:57:26;11.17;;;4.93;;
9675;SDS011;4876;42.656;23.292;2022-08-21T07:59:55;8.30;;;4.93;;
9675;SDS011;4876;42.656;23.292;2022-08-21T08:02:22;8.03;;;4.80;;
9675;SDS011;4876;42.656;23.292;2022-08-21T08:04:50;10.77;;;6.00;;
9675;SDS011;4876;42.656;23.292;2022-08-21T08:07:17;11.37;;;5.13;;
9675;SDS011;4876;42.656;23.292;2022-08-21T08:09:44;12.77;;;6.37;;
9675;SDS011;4876;42.656;23.292;2022-08-21T08:12:11;8.17;;;5.33;;
9675;SDS011;4876;42.656;23.292;2022-08-21T08:14:38;7.87;;;4.60;;
9675;SDS011;4876;42.656;23.292;2022-08-21T08:17:06;8.83;;;5.47;;
9675;SDS011;4876;42.656;23.292;2022-08-21T08:19:33;9.30;;;5.10;;
9675;SDS011;4876;42.656;23.292;2022-08-21T08:22:00;7.27;;;5.20;;
9675;SDS011;4876;42.656;23.292;2022-08-21T08:24:27;8.80;;;5.77;;
9675;SDS011;4876;42.656;23.292;2022-08-21T08:26:53;10.63;;;5.43;;
9675;SDS011;4876;42.656;23.292;2022-08-21T08:29:22;7.60;;;5.70;;
9675;SDS011;4876;42.656;23.292;2022-08-21T08:31:49;6.50;;;5.00;;
9675;SDS011;4876;42.656;23.292;2022-08-21T08:34:17;8.27;;;5.80;;
9675;SDS011;4876;42.656;23.292;2022-08-21T08:36:44;10.33;;;4.70;;
9675;SDS011;4876;42.656;23.292;2022-08-21T08:39:11;9.10;;;5.50;;
9675;SDS011;4876;42.656;23.292;2022-08-21T08:41:38;9.03;;;4.90;;
9675;SDS011;4876;42.656;23.292;2022-08-21T08:44:07;6.50;;;5.23;;
9675;SDS011;4876;42.656;23.292;2022-08-21T08:46:35;10.93;;;6.93;;
9675;SDS011;4876;42.656;23.292;2022-08-21T08:49:10;7.63;;;5.10;;
9675;SDS011;4876;42.656;23.292;2022-08-21T08:51:44;9.47;;;5.10;;
9675;SDS011;4876;42.656;23.292;2022-08-21T08:54:15;6.27;;;4.67;;
9675;SDS011;4876;42.656;23.292;2022-08-21T08:56:49;6.80;;;4.20;;
9675;SDS011;4876;42.656;23.292;2022-08-21T08:59:18;6.83;;;3.83;;
9675;SDS011;4876;42.656;23.292;2022-08-21T09:01:48;7.40;;;3.97;;
9675;SDS011;4876;42.656;23.292;2022-08-21T09:04:17;7.10;;;4.23;;
9675;SDS011;4876;42.656;23.292;2022-08-21T09:06:58;6.03;;;4.53;;
9675;SDS011;4876;42.656;23.292;2022-08-21T09:09:38;7.83;;;4.30;;
9675;SDS011;4876;42.656;23.292;2022-08-21T09:12:16;10.27;;;4.10;;
9675;SDS011;4876;42.656;23.292;2022-08-21T09:14:50;7.57;;;4.13;;
9675;SDS011;4876;42.656;23.292;2022-08-21T09:17:31;5.87;;;3.50;;
9675;SDS011;4876;42.656;23.292;2022-08-21T09:20:08;8.07;;;4.43;;
9675;SDS011;4876;42.656;23.292;2022-08-21T09:22:47;6.47;;;4.13;;
9675;SDS011;4876;42.656;23.292;2022-08-21T09:25:31;5.70;;;3.80;;
9675;SDS011;4876;42.656;23.292;2022-08-21T09:28:00;5.67;;;4.10;;
9675;SDS011;4876;42.656;23.292;2022-08-21T09:30:29;4.00;;;3.57;;
9675;SDS011;4876;42.656;23.292;2022-08-21T09:32:57;6.07;;;4.33;;
9675;SDS011;4876;42.656;23.292;2022-08-21T09:35:24;5.40;;;3.83;;
9675;SDS011;4876;42.656;23.292;2022-08-21T09:37:53;10.03;;;4.20;;
9675;SDS011;4876;42.656;23.292;2022-08-21T09:40:26;5.10;;;3.97;;
9675;SDS011;4876;42.656;23.292;2022-08-21T09:42:57;11.30;;;4.00;;
9675;SDS011;4876;42.656;23.292;2022-08-21T09:45:25;5.37;;;3.70;;
9675;SDS011;4876;42.656;23.292;2022-08-21T09:47:53;9.67;;;3.77;;
9675;SDS011;4876;42.656;23.292;2022-08-21T09:50:21;7.50;;;4.30;;
9675;SDS011;4876;42.656;23.292;2022-08-21T09:52:53;5.57;;;4.00;;
9675;SDS011;4876;42.656;23.292;2022-08-21T09:55:29;3.60;;;3.30;;
9675;SDS011;4876;42.656;23.292;2022-08-21T09:58:17;9.60;;;4.00;;
9675;SDS011;4876;42.656;23.292;2022-08-21T10:00:44;7.53;;;3.53;;
9675;SDS011;4876;42.656;23.292;2022-08-21T10:03:15;9.40;;;3.53;;
9675;SDS011;4876;42.656;23.292;2022-08-21T10:05:52;7.43;;;4.20;;
9675;SDS011;4876;42.656;23.292;2022-08-21T10:08:23;4.30;;;3.27;;
9675;SDS011;4876;42.656;23.292;2022-08-21T10:10:54;4.97;;;3.47;;
9675;SDS011;4876;42.656;23.292;2022-08-21T10:13:26;6.07;;;3.23;;
9675;SDS011;4876;42.656;23.292;2022-08-21T10:16:07;5.10;;;3.63;;
9675;SDS011;4876;42.656;23.292;2022-08-21T10:18:50;6.07;;;4.43;;
9675;SDS011;4876;42.656;23.292;2022-08-21T10:21:28;6.07;;;3.90;;
9675;SDS011;4876;42.656;23.292;2022-08-21T10:24:03;5.45;;;3.92;;
9675;SDS011;4876;42.656;23.292;2022-08-21T10:26:41;7.70;;;4.20;;
9675;SDS011;4876;42.656;23.292;2022-08-21T10:29:24;6.37;;;3.80;;
9675;SDS011;4876;42.656;23.292;2022-08-21T10:32:08;6.75;;;4.22;;
9675;SDS011;4876;42.656;23.292;2022-08-21T10:34:51;8.60;;;4.30;;
9675;SDS011;4876;42.656;23.292;2022-08-21T10:37:28;6.65;;;4.20;;
9675;SDS011;4876;42.656;23.292;2022-08-21T10:40:09;6.55;;;3.80;;
9675;SDS011;4876;42.656;23.292;2022-08-21T10:42:47;4.97;;;3.70;;
9675;SDS011;4876;42.656;23.292;2022-08-21T10:45:25;6.33;;;3.87;;
9675;SDS011;4876;42.656;23.292;2022-08-21T10:48:05;4.27;;;3.30;;
9675;SDS011;4876;42.656;23.292;2022-08-21T10:50:35;7.40;;;3.90;;
9675;SDS011;4876;42.656;23.292;2022-08-21T10:53:12;4.17;;;3.73;;
9675;SDS011;4876;42.656;23.292;2022-08-21T10:55:50;6.97;;;4.10;;
9675;SDS011;4876;42.656;23.292;2022-08-21T10:58:23;8.00;;;3.95;;
9675;SDS011;4876;42.656;23.292;2022-08-21T11:00:55;5.72;;;3.60;;
9675;SDS011;4876;42.656;23.292;2022-08-21T11:03:29;7.07;;;3.47;;
9675;SDS011;4876;42.656;23.292;2022-08-21T11:06:00;7.07;;;3.80;;
9675;SDS011;4876;42.656;23.292;2022-08-21T11:08:36;5.80;;;3.90;;
9675;SDS011;4876;42.656;23.292;2022-08-21T11:11:08;5.10;;;3.53;;
9675;SDS011;4876;42.656;23.292;2022-08-21T11:13:39;5.85;;;4.03;;
9675;SDS011;4876;42.656;23.292;2022-08-21T11:16:12;4.77;;;3.87;;
9675;SDS011;4876;42.656;23.292;2022-08-21T11:18:47;4.82;;;3.70;;
9675;SDS011;4876;42.656;23.292;2022-08-21T11:21:25;6.25;;;4.22;;
9675;SDS011;4876;42.656;23.292;2022-08-21T11:24:00;5.07;;;3.95;;
9675;SDS011;4876;42.656;23.292;2022-08-21T11:26:37;7.97;;;3.95;;
9675;SDS011;4876;42.656;23.292;2022-08-21T11:29:09;5.35;;;3.83;;
9675;SDS011;4876;42.656;23.292;2022-08-21T11:31:46;11.45;;;3.95;;
9675;SDS011;4876;42.656;23.292;2022-08-21T11:34:26;6.32;;;4.15;;
9675;SDS011;4876;42.656;23.292;2022-08-21T11:37:06;8.30;;;3.53;;
9675;SDS011;4876;42.656;23.292;2022-08-21T11:39:43;6.45;;;3.13;;
9675;SDS011;4876;42.656;23.292;2022-08-21T11:42:23;4.10;;;3.33;;
9675;SDS011;4876;42.656;23.292;2022-08-21T11:45:06;4.18;;;3.42;;
9675;SDS011;4876;42.656;23.292;2022-08-21T11:47:58;7.93;;;3.20;;
9675;SDS011;4876;42.656;23.292;2022-08-21T11:50:33;6.53;;;3.10;;
9675;SDS011;4876;42.656;23.292;2022-08-21T11:53:07;4.07;;;3.67;;
9675;SDS011;4876;42.656;23.292;2022-08-21T11:55:41;6.25;;;2.85;;
9675;SDS011;4876;42.656;23.292;2022-08-21T11:58:14;7.13;;;3.17;;
9675;SDS011;4876;42.656;23.292;2022-08-21T12:00:47;8.00;;;3.70;;
9675;SDS011;4876;42.656;23.292;2022-08-21T12:03:22;4.13;;;3.30;;
9675;SDS011;4876;42.656;23.292;2022-08-21T12:05:53;6.60;;;3.13;;
9675;SDS011;4876;42.656;23.292;2022-08-21T12:08:28;4.80;;;3.40;;
9675;SDS011;4876;42.656;23.292;2022-08-21T12:11:03;6.63;;;3.30;;
9675;SDS011;4876;42.656;23.292;2022-08-21T12:13:34;5.73;;;3.90;;
9675;SDS011;4876;42.656;23.292;2022-08-21T12:16:07;10.13;;;3.40;;
9675;SDS011;4876;42.656;23.292;2022-08-21T12:18:35;4.93;;;3.00;;
9675;SDS011;4876;42.656;23.292;2022-08-21T12:21:16;6.90;;;3.47;;
9675;SDS011;4876;42.656;23.292;2022-08-21T12:23:47;8.10;;;4.00;;
9675;SDS011;4876;42.656;23.292;2022-08-21T12:26:21;4.83;;;3.70;;
9675;SDS011;4876;42.656;23.292;2022-08-21T12:29:04;3.83;;;3.43;;
9675;SDS011;4876;42.656;23.292;2022-08-21T12:31:47;6.17;;;3.03;;
9675;SDS011;4876;42.656;23.292;2022-08-21T12:34:16;6.50;;;4.07;;
9675;SDS011;4876;42.656;23.292;2022-08-21T12:36:44;4.00;;;3.00;;
9675;SDS011;4876;42.656;23.292;2022-08-21T12:39:17;5.13;;;2.97;;
9675;SDS011;4876;42.656;23.292;2022-08-21T12:41:50;5.73;;;3.13;;
9675;SDS011;4876;42.656;23.292;2022-08-21T12:44:22;6.50;;;3.87;;
9675;SDS011;4876;42.656;23.292;2022-08-21T12:46:57;6.00;;;3.53;;
9675;SDS011;4876;42.656;23.292;2022-08-21T12:49:29;4.20;;;2.87;;
9675;SDS011;4876;42.656;23.292;2022-08-21T12:52:02;5.03;;;3.57;;
9675;SDS011;4876;42.656;23.292;2022-08-21T12:54:37;5.73;;;3.70;;
9675;SDS011;4876;42.656;23.292;2022-08-21T12:57:07;4.83;;;3.33;;
9675;SDS011;4876;42.656;23.292;2022-08-21T12:59:38;6.37;;;4.10;;
9675;SDS011;4876;42.656;23.292;2022-08-21T13:02:13;5.40;;;3.50;;
9675;SDS011;4876;42.656;23.292;2022-08-21T13:04:44;4.43;;;3.37;;
9675;SDS011;4876;42.656;23.292;2022-08-21T13:07:13;4.43;;;3.00;;
9675;SDS011;4876;42.656;23.292;2022-08-21T13:09:42;6.80;;;3.47;;
9675;SDS011;4876;42.656;23.292;2022-08-21T13:12:13;4.23;;;3.37;;
9675;SDS011;4876;42.656;23.292;2022-08-21T13:14:44;4.00;;;3.10;;
9675;SDS011;4876;42.656;23.292;2022-08-21T13:17:12;6.60;;;3.90;;
9675;SDS011;4876;42.656;23.292;2022-08-21T13:19:41;6.13;;;3.90;;
9675;SDS011;4876;42.656;23.292;2022-08-21T13:22:18;5.53;;;3.23;;
9675;SDS011;4876;42.656;23.292;2022-08-21T13:24:46;5.67;;;3.37;;
9675;SDS011;4876;42.656;23.292;2022-08-21T13:27:17;4.27;;;3.27;;
9675;SDS011;4876;42.656;23.292;2022-08-21T13:29:47;6.87;;;3.30;;
9675;SDS011;4876;42.656;23.292;2022-08-21T13:32:18;8.43;;;3.27;;
9675;SDS011;4876;42.656;23.292;2022-08-21T13:34:49;4.20;;;3.47;;
9675;SDS011;4876;42.656;23.292;2022-08-21T13:37:16;7.13;;;3.60;;
9675;SDS011;4876;42.656;23.292;2022-08-21T13:39:48;5.07;;;3.93;;
9675;SDS011;4876;42.656;23.292;2022-08-21T13:42:16;7.10;;;3.90;;
9675;SDS011;4876;42.656;23.292;2022-08-21T13:44:45;5.30;;;3.23;;
9675;SDS011;4876;42.656;23.292;2022-08-21T13:47:15;3.97;;;3.20;;
9675;SDS011;4876;42.656;23.292;2022-08-21T13:49:43;5.65;;;3.53;;
9675;SDS011;4876;42.656;23.292;2022-08-21T13:52:14;4.70;;;3.20;;
9675;SDS011;4876;42.656;23.292;2022-08-21T13:54:42;4.60;;;3.33;;
9675;SDS011;4876;42.656;23.292;2022-08-21T13:57:16;4.43;;;3.40;;
9675;SDS011;4876;42.656;23.292;2022-08-21T13:59:44;4.63;;;3.73;;
9675;SDS011;4876;42.656;23.292;2022-08-21T14:02:14;4.33;;;3.20;;
9675;SDS011;4876;42.656;23.292;2022-08-21T14:04:44;4.63;;;2.30;;
9675;SDS011;4876;42.656;23.292;2022-08-21T14:07:19;3.17;;;2.87;;
9675;SDS011;4876;42.656;23.292;2022-08-21T14:09:50;4.87;;;3.20;;
9675;SDS011;4876;42.656;23.292;2022-08-21T14:12:19;6.57;;;3.70;;
9675;SDS011;4876;42.656;23.292;2022-08-21T14:14:54;5.23;;;3.97;;
9675;SDS011;4876;42.656;23.292;2022-08-21T14:17:26;4.43;;;3.57;;
9675;SDS011;4876;42.656;23.292;2022-08-21T14:19:55;4.53;;;3.77;;
9675;SDS011;4876;42.656;23.292;2022-08-21T14:22:23;7.83;;;3.70;;
9675;SDS011;4876;42.656;23.292;2022-08-21T14:25:01;5.67;;;4.10;;
9675;SDS011;4876;42.656;23.292;2022-08-21T14:27:30;9.00;;;4.50;;
9675;SDS011;4876;42.656;23.292;2022-08-21T14:29:59;14.60;;;5.07;;
9675;SDS011;4876;42.656;23.292;2022-08-21T14:32:28;10.20;;;4.70;;
9675;SDS011;4876;42.656;23.292;2022-08-21T14:35:02;5.20;;;4.37;;
9675;SDS011;4876;42.656;23.292;2022-08-21T14:37:29;6.37;;;4.53;;
9675;SDS011;4876;42.656;23.292;2022-08-21T14:39:56;4.63;;;4.13;;
9675;SDS011;4876;42.656;23.292;2022-08-21T14:42:24;9.23;;;4.37;;
9675;SDS011;4876;42.656;23.292;2022-08-21T14:44:51;6.90;;;4.60;;
9675;SDS011;4876;42.656;23.292;2022-08-21T14:47:22;6.27;;;4.47;;
9675;SDS011;4876;42.656;23.292;2022-08-21T14:49:49;7.73;;;5.00;;
9675;SDS011;4876;42.656;23.292;2022-08-21T14:52:19;11.87;;;5.00;;
9675;SDS011;4876;42.656;23.292;2022-08-21T14:54:47;6.10;;;4.70;;
9675;SDS011;4876;42.656;23.292;2022-08-21T14:57:14;8.00;;;4.17;;
9675;SDS011;4876;42.656;23.292;2022-08-21T14:59:41;5.63;;;4.00;;
9675;SDS011;4876;42.656;23.292;2022-08-21T15:02:08;6.93;;;4.17;;
9675;SDS011;4876;42.656;23.292;2022-08-21T15:04:37;10.60;;;4.53;;
9675;SDS011;4876;42.656;23.292;2022-08-21T15:07:04;6.57;;;4.13;;
9675;SDS011;4876;42.656;23.292;2022-08-21T15:09:31;5.45;;;4.20;;
9675;SDS011;4876;42.656;23.292;2022-08-21T15:11:58;6.30;;;4.13;;
9675;SDS011;4876;42.656;23.292;2022-08-21T15:14:27;7.47;;;4.40;;
9675;SDS011;4876;42.656;23.292;2022-08-21T15:16:58;4.33;;;3.87;;